METAR AND TAF INFORMATION
METAR FOR KLAX
ADDS - METARS form results

(1852 UTC 15 November 2019)
Data provider http://aviationweather.gov/metar/data/
 
METAR text: KLAX 151839Z 21006KT 7SM SCT018 BKN140 BKN190 18/12 A3011 RMK AO2 SCT V BKN T01830122
Conditions at: KLAX (LOS ANGELES , CA, US) observed 1839 UTC 15 November 2019
Temperature: 18.3°C (65°F)
Dewpoint: 12.2°C (54°F) [RH = 68%]
Pressure (altimeter): 30.11 inches Hg (1019.7 mb)
Winds: from the SSW (210 degrees) at 7 MPH (6 knots; 3.1 m/s)
Visibility: 7 miles (11 km)
Ceiling: 14000 feet AGL
Clouds: scattered clouds at 1800 feet AGL
broken clouds at 14000 feet AGL
broken clouds at 19000 feet AGL
Weather: no significant weather observed at this time

METAR text: KLAX 151820Z 23005KT 7SM BKN018 BKN140 BKN190 19/13 A3012 RMK AO2 BKN018 V SCT T01890128
Conditions at: KLAX (LOS ANGELES , CA, US) observed 1820 UTC 15 November 2019
Temperature: 18.9°C (66°F)
Dewpoint: 12.8°C (55°F) [RH = 68%]
Pressure (altimeter): 30.12 inches Hg (1020.1 mb)
Winds: from the SW (230 degrees) at 6 MPH (5 knots; 2.6 m/s)
Visibility: 7 miles (11 km)
Ceiling: 1800 feet AGL
Clouds: broken clouds at 1800 feet AGL
broken clouds at 14000 feet AGL
broken clouds at 19000 feet AGL
Weather: no significant weather observed at this time

METAR text: KLAX 151800Z 17003KT 6SM HZ SCT017 BKN140 BKN190 18/12 A3012 RMK AO2 T01830122
Conditions at: KLAX (LOS ANGELES , CA, US) observed 1800 UTC 15 November 2019
Temperature: 18.3°C (65°F)
Dewpoint: 12.2°C (54°F) [RH = 68%]
Pressure (altimeter): 30.12 inches Hg (1020.1 mb)
Winds: from the S (170 degrees) at 3 MPH (3 knots; 1.5 m/s)
Visibility: 6 miles (10 km)
Ceiling: 14000 feet AGL
Clouds: scattered clouds at 1700 feet AGL
broken clouds at 14000 feet AGL
broken clouds at 19000 feet AGL
Weather: HZ  (haze)

METAR text: KLAX 151753Z 00000KT 5SM HZ FEW010 BKN017 BKN140 18/12 A3012 RMK AO2 SLP200 T01780122 10183 20150 51005
Conditions at: KLAX (LOS ANGELES , CA, US) observed 1753 UTC 15 November 2019
Temperature: 17.8°C (64°F)
Dewpoint: 12.2°C (54°F) [RH = 70%]
Pressure (altimeter): 30.12 inches Hg (1020.1 mb)
[Sea-level pressure: 1020.0 mb]
Winds: calm
Visibility: 5 miles ( 8 km)
Ceiling: 1700 feet AGL
Clouds: few clouds at 1000 feet AGL
broken clouds at 1700 feet AGL
broken clouds at 14000 feet AGL
Weather: HZ  (haze)

Forecast for: KLAX (LOS ANGELES , CA, US)
Text: KLAX 151729Z 1518/1624 VRB03KT 4SM HZ BKN015 BKN200
Forecast period: 1800 to 2000 UTC 15 November 2019
Forecast type: FROM: standard forecast or significant change
Winds: variable direction winds at 3 MPH (3 knots; 1.5 m/s)
Visibility: 4 miles (6 km)
Ceiling: 1500 feet AGL
Clouds: broken clouds at 1500 feet AGL
broken clouds at 20000 feet AGL
Weather: HZ  (haze)
Text: FM152000 27010KT P6SM FEW020 BKN200
Forecast period: 2000 UTC 15 November 2019 to 0300 UTC 16 November 2019
Forecast type: FROM: standard forecast or significant change
Winds: from the W (270 degrees) at 12 MPH (10 knots; 5.1 m/s)
Visibility: 6 or more miles 10+ km)
Ceiling: 20000 feet AGL
Clouds: few clouds at 2000 feet AGL
broken clouds at 20000 feet AGL
Weather: no significant weather forecast for this period
Text: FM160300 VRB03KT P6SM SCT200
Forecast period: 0300 to 2000 UTC 16 November 2019
Forecast type: FROM: standard forecast or significant change
Winds: variable direction winds at 3 MPH (3 knots; 1.5 m/s)
Visibility: 6 or more miles 10+ km)
Ceiling: at least 12,000 feet AGL
Clouds: scattered clouds at 20000 feet AGL
Weather: no significant weather forecast for this period
Text: FM162000 27010KT P6SM SCT200
Forecast period: 2000 UTC 16 November 2019 to 0000 UTC 17 November 2019
Forecast type: FROM: standard forecast or significant change
Winds: from the W (270 degrees) at 12 MPH (10 knots; 5.1 m/s)
Visibility: 6 or more miles 10+ km)
Ceiling: at least 12,000 feet AGL
Clouds: scattered clouds at 20000 feet AGL
Weather: no significant weather forecast for this period

 AIRPORT MAP

 RUNWAY INFORMATION
Runway 06L Runway length 8925 ft Runway width 150 ft
Runway elevation 112 ft Runway displaced threshold 0 ft Runway heading 83
Runway 24R Runway length 8925 ft Runway width 150 ft
Runway elevation 117 ft Runway displaced threshold 0 ft Runway heading 263
Runway 06R Runway length 10285 ft Runway width 150 ft
Runway elevation 108 ft Runway displaced threshold 331 ft Runway heading 83
Runway 24L Runway length 10285 ft Runway width 150 ft
Runway elevation 111 ft Runway displaced threshold 0 ft Runway heading 263
Runway 07L Runway length 12091 ft Runway width 150 ft
Runway elevation 119 ft Runway displaced threshold 0 ft Runway heading 83
Runway 25R Runway length 12091 ft Runway width 150 ft
Runway elevation 94 ft Runway displaced threshold 957 ft Runway heading 263
Runway 07R Runway length 11096 ft Runway width 200 ft
Runway elevation 118 ft Runway displaced threshold 0 ft Runway heading 83
Runway 25L Runway length 11096 ft Runway width 200 ft
Runway elevation 95 ft Runway displaced threshold 0 ft Runway heading 263

 AIRPORT FREQUENCIES
Type APP Name SOCAL APP Frequency 36.07 MHZ
Type APP Name SOCAL APP Frequency 124.3 MHZ
Type ATIS Name ATIS Frequency 133.8 MHZ
Type CLD Name CLNC DEL Frequency 121.4 MHZ
Type DEP Name SOCAL DEP Frequency 124.3 MHZ
Type GND Name GND Frequency 121.65 MHZ
Type MISC Name CG Frequency 34.5 MHZ
Type MISC Name CG Frequency 898.4 MHZ
Type OPS Name AF Frequency 37.22 MHZ
Type TWR Name TWR Frequency 119.8 MHZ
Type UNIC Name UNICOM Frequency 122.95 MHZ

 AIRPORT NEAR NAVIGATION AIDS
Type VORTAC Name Los Angeles Frequency 113600 KHZ
Type NDB Name Romen Frequency 278 KHZ